createdAt,value
2019-02-24T00:00:43.339Z,3.90
2019-02-24T00:03:09.584Z,3.78
2019-02-24T00:05:37.001Z,3.77
2019-02-24T00:08:03.448Z,3.84
2019-02-24T00:10:29.590Z,3.90
2019-02-24T00:12:55.815Z,3.82
2019-02-24T00:15:22.032Z,3.81
2019-02-24T00:17:48.117Z,3.73
2019-02-24T00:20:18.298Z,3.64
2019-02-24T00:22:44.541Z,3.67
2019-02-24T00:25:15.417Z,3.70
2019-02-24T00:27:41.821Z,3.71
2019-02-24T00:30:16.714Z,3.66
2019-02-24T00:32:42.986Z,3.57
2019-02-24T00:35:14.604Z,3.55
2019-02-24T00:37:41.068Z,3.54
2019-02-24T00:40:07.372Z,3.60
2019-02-24T00:42:33.564Z,3.53
2019-02-24T00:44:59.889Z,3.52
2019-02-24T00:47:26.206Z,3.38
2019-02-24T00:49:54.044Z,3.33
2019-02-24T00:52:20.530Z,3.28
2019-02-24T00:54:46.984Z,3.26
2019-02-24T00:57:13.304Z,3.25
2019-02-24T00:59:39.524Z,3.21
2019-02-24T01:02:05.833Z,3.15
2019-02-24T01:04:31.983Z,3.14
2019-02-24T01:06:58.259Z,3.06
2019-02-24T01:09:24.736Z,3.04
2019-02-24T01:11:51.028Z,3.01
2019-02-24T01:14:17.287Z,2.97
2019-02-24T01:16:43.558Z,2.99
2019-02-24T01:19:09.761Z,3.03
2019-02-24T01:21:36.192Z,2.96
2019-02-24T01:24:08.568Z,2.91
2019-02-24T01:26:34.953Z,2.87
2019-02-24T01:29:09.120Z,2.87
2019-02-24T01:31:35.479Z,2.80
2019-02-24T01:34:02.254Z,2.84
2019-02-24T01:36:29.731Z,2.80
2019-02-24T01:38:55.951Z,2.83
2019-02-24T01:41:22.259Z,2.77
2019-02-24T01:43:48.586Z,2.77
2019-02-24T01:46:14.925Z,2.82
2019-02-24T01:48:41.092Z,2.80
2019-02-24T01:51:07.345Z,2.77
2019-02-24T01:53:33.615Z,2.68
2019-02-24T01:55:59.902Z,2.60
2019-02-24T01:58:34.631Z,2.64
2019-02-24T02:00:54.581Z,2.62
2019-02-24T02:03:20.912Z,2.76
2019-02-24T02:05:47.145Z,2.82
2019-02-24T02:08:13.302Z,2.82
2019-02-24T02:10:39.550Z,2.76
2019-02-24T02:13:16.070Z,2.79
2019-02-24T02:15:42.230Z,2.77
2019-02-24T02:18:08.464Z,2.77
2019-02-24T02:20:34.756Z,2.77
2019-02-24T02:23:08.500Z,2.78
2019-02-24T02:25:34.920Z,2.79
2019-02-24T02:28:06.291Z,2.82
2019-02-24T02:30:32.564Z,2.72
2019-02-24T02:32:58.753Z,2.71
2019-02-24T02:35:24.883Z,2.61
2019-02-24T02:37:50.984Z,2.64
2019-02-24T02:40:20.535Z,2.67
2019-02-24T02:42:46.658Z,2.72
2019-02-24T02:45:12.875Z,2.73
2019-02-24T02:47:39.325Z,2.71
2019-02-24T02:50:05.664Z,2.73
2019-02-24T02:52:31.960Z,2.71
2019-02-24T02:54:59.846Z,2.61
2019-02-24T02:57:25.939Z,2.59
2019-02-24T02:59:52.176Z,2.56
2019-02-24T03:02:24.416Z,2.62
2019-02-24T03:04:46.662Z,2.50
2019-02-24T03:07:20.635Z,2.49
2019-02-24T03:09:49.565Z,2.50
2019-02-24T03:12:15.802Z,2.49
2019-02-24T03:14:41.908Z,2.62
2019-02-24T03:17:08.320Z,2.58
2019-02-24T03:19:34.404Z,2.51
2019-02-24T03:24:40.237Z,2.05
2019-02-24T03:27:06.569Z,1.63
2019-02-24T03:29:32.913Z,1.48
2019-02-24T03:31:59.323Z,1.55
2019-02-24T03:34:25.673Z,1.51
2019-02-24T03:36:51.994Z,1.60
2019-02-24T03:39:19.426Z,1.61
2019-02-24T03:41:45.546Z,1.65
2019-02-24T03:44:11.782Z,1.55
2019-02-24T03:46:37.914Z,1.28
2019-02-24T03:49:04.138Z,1.30
2019-02-24T03:51:30.256Z,1.22
2019-02-24T03:53:56.834Z,1.14
2019-02-24T03:56:23.091Z,1.22
2019-02-24T03:58:49.306Z,1.24
2019-02-24T04:01:15.696Z,1.16
2019-02-24T04:03:41.894Z,1.03
2019-02-24T04:06:07.998Z,0.92
2019-02-24T04:08:34.108Z,0.92
2019-02-24T04:11:00.235Z,0.52
2019-02-24T04:13:26.413Z,0.33
2019-02-24T04:15:52.701Z,0.32
2019-02-24T04:18:18.953Z,0.27
2019-02-24T04:20:45.126Z,0.42
2019-02-24T04:23:11.547Z,0.52
2019-02-24T04:25:37.760Z,0.63
2019-02-24T04:28:03.899Z,0.60
2019-02-24T04:30:30.137Z,0.62
2019-02-24T04:32:56.252Z,0.61
2019-02-24T04:35:22.374Z,0.48
2019-02-24T04:37:48.510Z,0.50
2019-02-24T04:40:14.741Z,0.49
2019-02-24T04:42:40.997Z,0.32
2019-02-24T04:45:07.260Z,0.34
2019-02-24T04:47:34.466Z,0.54
2019-02-24T04:50:00.712Z,0.41
2019-02-24T04:52:26.981Z,0.34
2019-02-24T04:54:53.303Z,0.50
2019-02-24T04:57:19.513Z,0.39
2019-02-24T04:59:45.585Z,0.33
2019-02-24T05:02:11.787Z,0.18
2019-02-24T05:04:37.963Z,0.25
2019-02-24T05:07:04.123Z,0.04
2019-02-24T05:09:30.398Z,0.05
2019-02-24T05:11:56.507Z,0.01
2019-02-24T05:14:22.600Z,-0.11
2019-02-24T05:16:48.891Z,-0.04
2019-02-24T05:19:15.218Z,0.06
2019-02-24T05:21:41.311Z,0.20
2019-02-24T05:24:07.647Z,0.07
2019-02-24T05:26:34.134Z,-0.15
2019-02-24T05:29:00.374Z,-0.28
2019-02-24T05:31:26.620Z,-0.38
2019-02-24T05:33:52.792Z,-0.44
2019-02-24T05:36:19.203Z,-0.34
2019-02-24T05:38:45.553Z,-0.30
2019-02-24T05:41:11.774Z,-0.28
2019-02-24T05:43:37.872Z,-0.37
2019-02-24T05:46:04.206Z,-0.52
2019-02-24T05:48:30.453Z,-0.45
2019-02-24T05:50:56.767Z,-0.38
2019-02-24T05:53:22.916Z,-0.50
2019-02-24T05:55:49.014Z,-0.46
2019-02-24T05:58:15.252Z,-0.49
2019-02-24T06:00:41.416Z,-0.57
2019-02-24T06:03:07.701Z,-0.58
2019-02-24T06:05:33.972Z,-0.60
2019-02-24T06:08:01.424Z,-0.60
2019-02-24T06:10:27.517Z,-0.71
2019-02-24T06:12:53.778Z,-0.73
2019-02-24T06:15:19.921Z,-0.71
2019-02-24T06:17:46.114Z,-0.64
2019-02-24T06:20:12.330Z,-0.71
2019-02-24T06:22:38.757Z,-0.77
2019-02-24T06:25:04.939Z,-0.76
2019-02-24T06:27:31.125Z,-0.76
2019-02-24T06:30:04.534Z,-0.95
2019-02-24T06:32:26.266Z,-0.70
2019-02-24T06:34:52.587Z,-0.98
2019-02-24T06:37:18.722Z,-0.95
2019-02-24T06:39:44.865Z,-0.88
2019-02-24T06:42:11.057Z,-0.78
2019-02-24T06:44:37.136Z,-0.70
2019-02-24T06:47:03.618Z,-0.67
2019-02-24T06:49:29.715Z,-0.63
2019-02-24T06:51:57.012Z,-0.34
2019-02-24T06:54:23.116Z,-0.45
2019-02-24T06:56:49.519Z,-0.37
2019-02-24T06:59:15.661Z,-0.35
2019-02-24T07:01:41.861Z,-0.24
2019-02-24T07:04:08.040Z,-0.13
2019-02-24T07:06:34.323Z,0.07
2019-02-24T07:09:00.513Z,0.17
2019-02-24T07:11:26.646Z,0.35
2019-02-24T07:13:52.848Z,0.34
2019-02-24T07:16:19.199Z,0.43
2019-02-24T07:18:45.320Z,0.50
2019-02-24T07:21:11.462Z,0.53
2019-02-24T07:23:37.582Z,0.70
2019-02-24T07:26:03.915Z,0.88
2019-02-24T07:28:30.116Z,1.09
2019-02-24T07:30:56.294Z,1.20
2019-02-24T07:33:22.541Z,1.33
2019-02-24T07:35:49.033Z,1.48
2019-02-24T07:38:15.377Z,1.65
2019-02-24T07:40:41.493Z,1.81
2019-02-24T07:43:07.612Z,1.94
2019-02-24T07:45:33.939Z,2.07
2019-02-24T07:48:00.472Z,2.19
2019-02-24T07:50:26.639Z,2.32
2019-02-24T07:52:52.893Z,2.46
2019-02-24T07:55:19.087Z,2.64
2019-02-24T07:57:45.313Z,2.77
2019-02-24T08:00:11.645Z,2.86
2019-02-24T08:02:37.928Z,2.92
2019-02-24T08:05:05.998Z,3.04
2019-02-24T08:07:32.245Z,3.15
2019-02-24T08:09:58.554Z,3.19
2019-02-24T08:12:24.801Z,3.32
2019-02-24T08:14:50.900Z,3.40
2019-02-24T08:17:17.036Z,3.53
2019-02-24T08:19:43.265Z,3.58
2019-02-24T08:22:09.374Z,3.76
2019-02-24T08:24:35.612Z,3.99
2019-02-24T08:27:01.876Z,4.29
2019-02-24T08:29:29.516Z,4.33
2019-02-24T08:31:56.212Z,4.50
2019-02-24T08:34:22.323Z,4.55
2019-02-24T08:36:48.693Z,4.70
2019-02-24T08:39:14.806Z,4.88
2019-02-24T08:41:40.948Z,5.12
2019-02-24T08:44:07.258Z,5.56
2019-02-24T08:46:33.442Z,5.80
2019-02-24T08:48:59.753Z,5.92
2019-02-24T08:51:26.057Z,5.98
2019-02-24T08:53:52.182Z,6.27
2019-02-24T08:56:18.412Z,6.35
2019-02-24T08:58:44.720Z,6.35
2019-02-24T09:01:11.032Z,6.10
2019-02-24T09:03:37.253Z,6.04
2019-02-24T09:06:03.554Z,6.13
2019-02-24T09:08:29.701Z,6.20
2019-02-24T09:10:55.837Z,6.32
2019-02-24T09:13:22.174Z,6.52
2019-02-24T09:15:48.481Z,6.48
2019-02-24T09:18:14.854Z,6.54
2019-02-24T09:20:41.210Z,6.79
2019-02-24T09:23:16.848Z,6.71
2019-02-24T09:25:58.992Z,6.91
2019-02-24T09:28:31.209Z,7.23
2019-02-24T09:31:00.761Z,7.49
2019-02-24T09:33:25.554Z,7.78
2019-02-24T09:35:51.924Z,7.81
2019-02-24T09:38:19.411Z,8.23
2019-02-24T09:40:45.643Z,8.33
2019-02-24T09:43:11.916Z,8.63
2019-02-24T09:45:38.161Z,8.82
2019-02-24T09:48:04.433Z,8.89
2019-02-24T09:50:30.661Z,9.08
2019-02-24T09:52:56.894Z,9.24
2019-02-24T09:55:23.063Z,9.73
2019-02-24T09:57:49.269Z,9.88
2019-02-24T10:00:15.687Z,10.06
2019-02-24T10:02:42.158Z,9.98
2019-02-24T10:05:08.287Z,9.80
2019-02-24T10:07:34.438Z,10.04
2019-02-24T10:10:00.642Z,10.04
2019-02-24T10:12:27.052Z,10.23
2019-02-24T10:14:53.184Z,10.31
2019-02-24T10:17:19.516Z,10.48
2019-02-24T10:19:45.858Z,9.90
2019-02-24T10:22:12.188Z,10.13
2019-02-24T10:24:38.526Z,9.93
2019-02-24T10:27:04.855Z,10.05
2019-02-24T10:29:31.109Z,10.60
2019-02-24T10:31:57.431Z,10.96
2019-02-24T10:34:23.687Z,11.17
2019-02-24T10:36:49.919Z,11.64
2019-02-24T10:39:16.037Z,10.70
2019-02-24T10:41:42.257Z,11.68
2019-02-24T10:44:08.381Z,12.05
2019-02-24T10:46:34.583Z,12.45
2019-02-24T10:49:03.367Z,12.81
2019-02-24T10:51:28.849Z,13.29
2019-02-24T10:53:55.238Z,13.25
2019-02-24T10:56:21.591Z,11.92
2019-02-24T10:58:47.808Z,12.62
2019-02-24T11:01:14.162Z,12.29
2019-02-24T11:03:40.416Z,12.49
2019-02-24T11:06:06.753Z,12.49
2019-02-24T11:08:33.128Z,12.18
2019-02-24T11:10:59.283Z,12.38
2019-02-24T11:13:25.668Z,12.55
2019-02-24T11:15:52.213Z,12.67
2019-02-24T11:18:18.814Z,12.28
2019-02-24T11:20:45.143Z,12.32
2019-02-24T11:23:11.442Z,12.32
2019-02-24T11:25:38.809Z,12.64
2019-02-24T11:28:05.228Z,12.64
2019-02-24T11:30:31.612Z,12.97
2019-02-24T11:32:58.008Z,13.16
2019-02-24T11:35:24.319Z,13.77
2019-02-24T11:37:50.579Z,13.51
2019-02-24T11:40:17.375Z,14.06
2019-02-24T11:42:43.752Z,14.15
2019-02-24T11:45:10.134Z,14.37
2019-02-24T11:47:36.419Z,14.95
2019-02-24T11:50:05.323Z,14.64
2019-02-24T11:52:32.585Z,14.78
2019-02-24T11:54:58.933Z,15.20
2019-02-24T11:57:25.473Z,15.45
2019-02-24T11:59:51.529Z,15.18
2019-02-24T12:02:17.758Z,15.26
2019-02-24T12:04:44.019Z,15.09
2019-02-24T12:07:10.326Z,15.29
2019-02-24T12:09:36.590Z,15.13
2019-02-24T12:12:06.173Z,14.68
2019-02-24T12:14:32.380Z,14.46
2019-02-24T12:16:58.736Z,13.91
2019-02-24T12:19:25.194Z,14.08
2019-02-24T12:21:51.644Z,14.37
2019-02-24T12:24:17.841Z,14.62
2019-02-24T12:26:47.684Z,14.48
2019-02-24T12:29:13.837Z,15.15
2019-02-24T12:31:45.400Z,15.36
2019-02-24T12:34:11.586Z,15.60
2019-02-24T12:36:37.997Z,16.09
2019-02-24T12:39:05.118Z,15.23
2019-02-24T12:41:33.222Z,14.68
2019-02-24T12:43:59.363Z,15.21
2019-02-24T12:46:25.690Z,15.66
2019-02-24T12:48:52.150Z,15.08
2019-02-24T12:51:18.466Z,14.81
2019-02-24T12:53:45.121Z,14.45
2019-02-24T12:56:11.483Z,14.35
2019-02-24T12:58:37.719Z,14.54
2019-02-24T13:01:06.550Z,15.16
2019-02-24T13:03:32.919Z,15.21
2019-02-24T13:05:59.214Z,16.25
2019-02-24T13:08:25.690Z,16.82
2019-02-24T13:10:51.894Z,16.72
2019-02-24T13:13:18.228Z,17.62
2019-02-24T13:15:46.287Z,17.67
2019-02-24T13:18:15.778Z,16.81
2019-02-24T13:20:42.117Z,16.46
2019-02-24T13:23:08.985Z,17.38
2019-02-24T13:25:36.431Z,16.94
2019-02-24T13:28:05.920Z,16.28
2019-02-24T13:30:32.158Z,16.19
2019-02-24T13:32:58.417Z,17.29
2019-02-24T13:35:25.018Z,17.72
2019-02-24T13:37:51.167Z,17.45
2019-02-24T13:40:17.605Z,17.74
2019-02-24T13:42:43.861Z,18.32
2019-02-24T13:45:17.539Z,18.29
2019-02-24T13:47:43.980Z,17.84
2019-02-24T13:50:13.855Z,17.86
2019-02-24T13:52:40.291Z,17.56
2019-02-24T13:55:09.233Z,17.94
2019-02-24T13:57:35.392Z,18.72
2019-02-24T14:00:12.392Z,18.56
2019-02-24T14:02:40.530Z,18.47
2019-02-24T14:05:08.384Z,18.31
2019-02-24T14:07:34.805Z,17.68
2019-02-24T14:10:09.434Z,17.87
2019-02-24T14:12:35.776Z,17.99
2019-02-24T14:15:09.982Z,18.37
2019-02-24T14:17:37.274Z,17.86
2019-02-24T14:20:09.741Z,17.22
2019-02-24T14:22:36.067Z,17.30
2019-02-24T14:25:07.773Z,17.93
2019-02-24T14:27:33.937Z,18.13
2019-02-24T14:30:00.291Z,18.17
2019-02-24T14:32:32.832Z,18.26
2019-02-24T14:34:55.948Z,18.33
2019-02-24T14:37:22.370Z,17.80
2019-02-24T14:39:48.651Z,18.21
2019-02-24T14:42:18.226Z,17.11
2019-02-24T14:44:44.718Z,17.15
2019-02-24T14:47:10.959Z,17.58
2019-02-24T14:49:37.236Z,17.77
2019-02-24T14:52:03.839Z,18.13
2019-02-24T14:54:30.208Z,18.78
2019-02-24T14:56:56.444Z,18.46
2019-02-24T14:59:22.677Z,18.69
2019-02-24T15:01:48.826Z,18.02
2019-02-24T15:04:14.899Z,17.78
2019-02-24T15:06:41.275Z,17.99
2019-02-24T15:09:08.271Z,18.59
2019-02-24T15:11:34.898Z,19.04
2019-02-24T15:14:01.106Z,19.19
2019-02-24T15:16:27.401Z,18.98
2019-02-24T15:18:53.643Z,19.03
2019-02-24T15:21:20.412Z,18.80
2019-02-24T15:23:46.710Z,18.32
2019-02-24T15:26:13.068Z,18.20
2019-02-24T15:28:39.397Z,17.95
2019-02-24T15:31:07.724Z,17.99
2019-02-24T15:33:33.986Z,18.10
2019-02-24T15:36:00.300Z,17.99
2019-02-24T15:38:26.620Z,17.97
2019-02-24T15:40:52.889Z,17.74
2019-02-24T15:43:19.089Z,17.31
2019-02-24T15:45:45.422Z,17.08
2019-02-24T15:48:11.758Z,16.82
2019-02-24T15:50:37.994Z,17.05
2019-02-24T15:53:04.383Z,16.93
2019-02-24T15:55:30.716Z,17.57
2019-02-24T15:57:57.135Z,17.51
2019-02-24T16:00:24.068Z,17.63
2019-02-24T16:02:50.391Z,17.40
2019-02-24T16:05:16.627Z,17.16
2019-02-24T16:07:42.995Z,17.16
2019-02-24T16:10:15.822Z,17.11
2019-02-24T16:12:42.138Z,17.32
2019-02-24T16:15:11.620Z,17.53
2019-02-24T16:17:37.966Z,17.29
2019-02-24T16:20:07.944Z,16.75
2019-02-24T16:22:34.298Z,16.99
2019-02-24T16:25:00.531Z,16.88
2019-02-24T16:27:26.781Z,16.82
2019-02-24T16:29:53.127Z,17.17
2019-02-24T16:32:19.301Z,16.84
2019-02-24T16:34:46.562Z,16.58
2019-02-24T16:37:12.950Z,16.68
2019-02-24T16:39:39.216Z,16.29
2019-02-24T16:42:06.717Z,15.54
2019-02-24T16:44:33.092Z,14.86
2019-02-24T16:46:59.630Z,14.91
2019-02-24T16:49:25.743Z,14.85
2019-02-24T16:51:51.982Z,14.77
2019-02-24T16:54:18.351Z,14.65
2019-02-24T16:56:44.587Z,14.46
2019-02-24T16:59:10.932Z,14.24
2019-02-24T17:01:37.063Z,14.08
2019-02-24T17:04:03.543Z,13.64
2019-02-24T17:06:29.824Z,13.41
2019-02-24T17:09:02.543Z,13.02
2019-02-24T17:11:24.265Z,11.84
2019-02-24T17:13:50.857Z,11.76
2019-02-24T17:16:17.141Z,11.60
2019-02-24T17:18:43.559Z,11.60
2019-02-24T17:21:09.801Z,11.19
2019-02-24T17:23:36.128Z,10.77
2019-02-24T17:26:02.693Z,10.54
2019-02-24T17:28:28.968Z,10.52
2019-02-24T17:30:55.275Z,10.39
2019-02-24T17:33:29.796Z,10.48
2019-02-24T17:35:49.962Z,10.44
2019-02-24T17:38:16.341Z,10.34
2019-02-24T17:40:42.723Z,10.53
2019-02-24T17:43:08.964Z,10.35
2019-02-24T17:45:35.246Z,10.03
2019-02-24T17:48:01.581Z,10.04
2019-02-24T17:50:28.151Z,10.02
2019-02-24T17:52:54.593Z,9.97
2019-02-24T17:55:21.152Z,9.94
2019-02-24T17:57:47.567Z,10.08
2019-02-24T18:00:25.950Z,10.15
2019-02-24T18:02:52.273Z,9.97
2019-02-24T18:05:18.638Z,9.79
2019-02-24T18:07:45.123Z,9.56
2019-02-24T18:10:11.549Z,9.51
2019-02-24T18:12:37.799Z,9.38
2019-02-24T18:15:08.490Z,9.36
2019-02-24T18:17:34.849Z,9.15
2019-02-24T18:20:01.311Z,9.06
2019-02-24T18:22:27.658Z,9.04
2019-02-24T18:25:02.716Z,9.13
2019-02-24T18:27:23.834Z,9.32
2019-02-24T18:29:51.148Z,9.16
2019-02-24T18:32:17.622Z,8.99
2019-02-24T18:34:44.164Z,8.63
2019-02-24T18:37:10.571Z,8.70
2019-02-24T18:39:36.907Z,8.80
2019-02-24T18:42:05.010Z,8.66
2019-02-24T18:44:31.386Z,8.61
2019-02-24T18:46:57.605Z,8.85
2019-02-24T18:49:25.771Z,8.77
2019-02-24T18:51:52.076Z,8.48
2019-02-24T18:54:18.430Z,8.20
2019-02-24T18:56:44.747Z,8.02
2019-02-24T18:59:11.105Z,7.85
2019-02-24T19:01:37.336Z,7.86
2019-02-24T19:04:03.680Z,7.99
2019-02-24T19:06:38.768Z,8.04
2019-02-24T19:08:58.278Z,7.95
2019-02-24T19:11:24.646Z,7.85
2019-02-24T19:13:50.926Z,7.95
2019-02-24T19:16:17.146Z,8.03
2019-02-24T19:18:44.812Z,7.94
2019-02-24T19:21:12.285Z,7.94
2019-02-24T19:23:38.573Z,7.88
2019-02-24T19:26:04.899Z,7.82
2019-02-24T19:28:32.248Z,7.11
2019-02-24T19:30:58.559Z,6.76
2019-02-24T19:33:24.895Z,7.09
2019-02-24T19:35:51.431Z,7.25
2019-02-24T19:38:17.646Z,7.29
2019-02-24T19:40:44.108Z,7.27
2019-02-24T19:43:10.396Z,7.47
2019-02-24T19:45:36.896Z,7.56
2019-02-24T19:48:03.180Z,7.66
2019-02-24T19:50:29.436Z,7.79
2019-02-24T19:52:55.710Z,7.89
2019-02-24T19:55:21.935Z,7.82
2019-02-24T19:57:48.396Z,7.81
2019-02-24T20:00:22.730Z,7.78
2019-02-24T20:02:49.056Z,7.77
2019-02-24T20:05:15.460Z,7.78
2019-02-24T20:07:41.777Z,7.71
2019-02-24T20:10:10.745Z,7.68
2019-02-24T20:12:37.057Z,7.73
2019-02-24T20:15:07.086Z,7.79
2019-02-24T20:17:33.497Z,7.73
2019-02-24T20:19:59.819Z,7.89
2019-02-24T20:22:26.098Z,8.00
2019-02-24T20:24:52.426Z,7.99
2019-02-24T20:27:18.741Z,7.84
2019-02-24T20:29:44.880Z,7.71
2019-02-24T20:32:11.338Z,7.66
2019-02-24T20:34:37.460Z,7.40
2019-02-24T20:37:04.008Z,7.39
2019-02-24T20:39:30.274Z,7.30
2019-02-24T20:41:56.567Z,7.29
2019-02-24T20:44:22.760Z,7.13
2019-02-24T20:46:49.052Z,7.11
2019-02-24T20:49:15.388Z,7.12
2019-02-24T20:51:42.722Z,6.96
2019-02-24T20:54:18.289Z,6.74
2019-02-24T20:56:44.800Z,6.68
2019-02-24T20:59:19.272Z,6.62
2019-02-24T21:01:45.838Z,6.61
2019-02-24T21:04:17.830Z,6.55
2019-02-24T21:06:44.102Z,6.29
2019-02-24T21:09:16.803Z,6.10
2019-02-24T21:11:43.045Z,6.29
2019-02-24T21:14:09.429Z,6.24
2019-02-24T21:16:35.754Z,6.04
2019-02-24T21:19:10.291Z,6.02
2019-02-24T21:21:36.631Z,5.92
2019-02-24T21:24:05.094Z,6.02
2019-02-24T21:26:31.605Z,6.09
2019-02-24T21:28:58.055Z,6.18
2019-02-24T21:31:24.343Z,6.26
2019-02-24T21:36:29.479Z,6.03
2019-02-24T21:38:55.830Z,5.98
2019-02-24T21:41:29.895Z,5.87
2019-02-24T21:43:57.285Z,5.39
2019-02-24T21:46:23.548Z,5.15
2019-02-24T21:48:57.241Z,5.04
2019-02-24T21:51:23.461Z,5.22
2019-02-24T21:53:51.863Z,5.30
2019-02-24T21:56:21.381Z,5.46
2019-02-24T21:58:50.597Z,5.25
2019-02-24T22:01:17.305Z,5.29
2019-02-24T22:03:43.640Z,5.31
2019-02-24T22:06:09.852Z,5.28
2019-02-24T22:08:36.096Z,5.20
2019-02-24T22:11:05.299Z,5.18
2019-02-24T22:13:31.565Z,4.98
2019-02-24T22:15:57.817Z,5.02
2019-02-24T22:18:24.240Z,5.00
2019-02-24T22:20:50.370Z,4.83
2019-02-24T22:23:16.751Z,4.50
2019-02-24T22:25:43.077Z,4.45
2019-02-24T22:28:09.379Z,4.26
2019-02-24T22:30:35.734Z,4.26
2019-02-24T22:33:02.056Z,4.56
2019-02-24T22:35:28.407Z,4.55
2019-02-24T22:37:54.696Z,4.55
2019-02-24T22:40:21.015Z,4.69
2019-02-24T22:42:47.136Z,4.71
2019-02-24T22:45:17.026Z,4.64
2019-02-24T22:47:44.045Z,4.63
2019-02-24T22:50:12.177Z,4.40
2019-02-24T22:52:38.414Z,4.39
2019-02-24T22:55:17.699Z,4.08
2019-02-24T22:57:44.017Z,3.87
2019-02-24T23:00:51.335Z,3.85
2019-02-24T23:03:21.185Z,3.79
2019-02-24T23:05:47.757Z,3.53
2019-02-24T23:08:15.444Z,3.58
2019-02-24T23:10:41.926Z,3.63
2019-02-24T23:13:08.369Z,3.68
2019-02-24T23:15:34.787Z,3.80
2019-02-24T23:18:04.673Z,3.90
2019-02-24T23:20:31.405Z,3.94
2019-02-24T23:22:57.886Z,3.78
2019-02-24T23:25:24.053Z,3.69
2019-02-24T23:27:50.462Z,3.78
2019-02-24T23:30:16.817Z,3.82
2019-02-24T23:32:43.243Z,3.80
2019-02-24T23:35:16.574Z,3.87
2019-02-24T23:37:42.826Z,4.14
2019-02-24T23:40:09.181Z,4.22
2019-02-24T23:42:35.411Z,4.02
2019-02-24T23:45:13.568Z,3.76
2019-02-24T23:47:39.772Z,3.75
2019-02-24T23:50:08.058Z,3.42
2019-02-24T23:52:34.151Z,3.30
2019-02-24T23:55:00.312Z,3.30
2019-02-24T23:57:27.618Z,3.38
2019-02-24T23:59:53.754Z,3.56
